Time;durP1;ratioP1;P1;durP2;ratioP2;P2;SDS_P1;SDS_P2;PMS_P1;PMS_P2;Temp;Humidity;BMP_temperature;BMP_pressure;BME280_temperature;BME280_humidity;BME280_pressure;Samples;Min_cycle;Max_cycle;Signal;HPM_P1;HPM_P2
2024/03/01 00:01:41;;;;;;;13.47;10.70;;;10.30;92.40;;;;;;4939915;29;20430;-62
2024/03/01 00:04:07;;;;;;;16.20;12.50;;;10.40;92.30;;;;;;4951752;29;20490;-62
2024/03/01 00:06:33;;;;;;;14.97;12.37;;;10.50;92.20;;;;;;4947221;29;20220;-62
2024/03/01 00:08:59;;;;;;;18.30;12.20;;;10.50;92.30;;;;;;4941792;29;20181;-62
2024/03/01 00:11:25;;;;;;;14.17;11.80;;;10.40;92.60;;;;;;4942627;29;20182;-61
2024/03/01 00:13:51;;;;;;;16.13;12.37;;;10.50;92.70;;;;;;4946016;29;20195;-62
2024/03/01 00:16:16;;;;;;;17.17;12.03;;;10.50;93.00;;;;;;4933301;29;20792;-62
2024/03/01 00:18:43;;;;;;;14.90;11.87;;;10.50;93.20;;;;;;4957565;28;20180;-62
2024/03/01 00:21:15;;;;;;;15.00;11.77;;;10.50;93.40;;;;;;4952080;29;20188;-62
2024/03/01 00:23:41;;;;;;;338.90;199.17;;;10.30;94.00;;;;;;4953424;29;20461;-62
2024/03/01 00:26:07;;;;;;;30.13;20.10;;;10.50;94.40;;;;;;4952653;29;20512;-61
2024/03/01 00:28:34;;;;;;;17.37;12.73;;;10.50;93.80;;;;;;4947091;29;20553;-61
2024/03/01 00:31:01;;;;;;;16.20;11.40;;;10.60;93.50;;;;;;4948549;29;20827;-60
2024/03/01 00:33:26;;;;;;;16.57;12.67;;;10.50;93.60;;;;;;4949031;29;20772;-61
2024/03/01 00:35:52;;;;;;;17.40;13.37;;;10.50;93.90;;;;;;4933918;29;20400;-62
2024/03/01 00:38:18;;;;;;;15.97;11.90;;;10.60;93.90;;;;;;4942871;29;20276;-62
2024/03/01 00:40:44;;;;;;;16.97;13.60;;;10.60;94.60;;;;;;4939907;29;20178;-61
2024/03/01 00:43:10;;;;;;;15.07;12.17;;;10.70;94.10;;;;;;4924004;29;20310;-61
2024/03/01 00:45:36;;;;;;;14.93;12.60;;;10.70;94.10;;;;;;4934412;28;20527;-62
2024/03/01 00:48:08;;;;;;;19.47;13.80;;;10.60;94.20;;;;;;4937732;29;20502;-62
2024/03/01 00:50:34;;;;;;;17.27;12.37;;;10.50;94.40;;;;;;4947661;29;20179;-61
2024/03/01 00:53:00;;;;;;;16.47;12.33;;;10.40;94.80;;;;;;4951602;29;20432;-61
2024/03/01 00:55:25;;;;;;;16.27;13.07;;;10.20;95.60;;;;;;4955928;29;20190;-62
2024/03/01 00:57:51;;;;;;;18.20;13.50;;;10.20;95.60;;;;;;4956507;29;20414;-61
2024/03/01 01:00:17;;;;;;;18.17;12.50;;;10.20;96.00;;;;;;4955416;29;20231;-61
2024/03/01 01:02:43;;;;;;;16.80;12.50;;;10.20;96.30;;;;;;4951829;29;20184;-62
2024/03/01 01:05:10;;;;;;;17.70;12.30;;;10.10;96.50;;;;;;4954747;29;20448;-61
2024/03/01 01:07:36;;;;;;;16.30;12.50;;;10.10;96.80;;;;;;4957379;29;20409;-62
2024/03/01 01:10:04;;;;;;;20.30;14.20;;;10.20;97.00;;;;;;4954687;29;20435;-61
2024/03/01 01:12:33;;;;;;;17.20;12.23;;;10.20;96.80;;;;;;4954598;29;20689;-61
2024/03/01 01:14:59;;;;;;;15.83;11.83;;;10.20;96.80;;;;;;4956467;29;20411;-62
2024/03/01 01:17:26;;;;;;;18.60;13.10;;;10.20;97.10;;;;;;4938096;29;20843;-62
2024/03/01 01:19:55;;;;;;;14.63;12.20;;;10.10;97.40;;;;;;4954553;29;20631;-61
2024/03/01 01:22:21;;;;;;;17.57;11.53;;;10.10;97.40;;;;;;4956772;29;20447;-62
2024/03/01 01:24:46;;;;;;;18.80;14.50;;;10.30;97.40;;;;;;4955303;29;20553;-62
2024/03/01 01:27:12;;;;;;;23.00;14.30;;;10.10;97.30;;;;;;4953802;29;20196;-61
2024/03/01 01:29:38;;;;;;;20.90;13.63;;;10.10;98.00;;;;;;4956659;29;20169;-62
2024/03/01 01:32:04;;;;;;;19.50;13.90;;;9.90;99.00;;;;;;4954322;29;20192;-61
2024/03/01 01:34:30;;;;;;;18.23;13.40;;;9.80;99.70;;;;;;4955086;29;20197;-62
2024/03/01 01:36:56;;;;;;;19.60;13.50;;;9.80;99.90;;;;;;4955842;29;20867;-61
2024/03/01 01:39:22;;;;;;;16.93;12.47;;;9.90;99.90;;;;;;4954668;29;20190;-62
2024/03/01 01:41:48;;;;;;;15.23;11.97;;;10.10;99.20;;;;;;4955258;29;20448;-62
2024/03/01 01:44:14;;;;;;;14.83;12.17;;;10.20;98.60;;;;;;4954708;29;20997;-61
2024/03/01 01:46:42;;;;;;;18.03;12.40;;;10.00;99.10;;;;;;4938622;29;20440;-62
2024/03/01 01:49:08;;;;;;;17.07;12.13;;;10.20;99.00;;;;;;4937228;29;20439;-62
2024/03/01 01:51:35;;;;;;;18.50;13.23;;;10.40;98.50;;;;;;4936271;29;20964;-61
2024/03/01 01:54:02;;;;;;;14.53;12.07;;;10.40;98.00;;;;;;4954274;29;20442;-62
2024/03/01 01:56:28;;;;;;;15.93;12.20;;;10.40;98.20;;;;;;4945126;29;20817;-61
2024/03/01 01:58:56;;;;;;;17.80;12.43;;;10.50;97.90;;;;;;4935960;29;20429;-59
2024/03/01 02:01:22;;;;;;;15.27;11.87;;;10.50;97.80;;;;;;4933512;29;20418;-62
2024/03/01 02:03:49;;;;;;;19.37;12.80;;;10.40;98.20;;;;;;4951791;29;20977;-62
2024/03/01 02:06:15;;;;;;;13.33;10.83;;;10.50;98.20;;;;;;4953114;29;20445;-62
2024/03/01 02:08:40;;;;;;;16.13;12.30;;;10.60;98.10;;;;;;4955976;29;20496;-62
2024/03/01 02:11:06;;;;;;;14.70;11.67;;;10.50;98.40;;;;;;4954026;29;20184;-62
2024/03/01 02:13:32;;;;;;;18.10;11.30;;;10.50;98.20;;;;;;4953854;29;20185;-62
2024/03/01 02:15:59;;;;;;;13.20;10.73;;;10.40;98.80;;;;;;4952655;29;20925;-62
2024/03/01 02:18:25;;;;;;;16.10;12.77;;;10.50;98.50;;;;;;4946114;29;20472;-62
2024/03/01 02:20:58;;;;;;;16.73;12.27;;;10.60;98.40;;;;;;4952611;29;20790;-62
2024/03/01 02:23:25;;;;;;;17.97;13.07;;;10.70;97.90;;;;;;4954078;29;20304;-62
2024/03/01 02:25:51;;;;;;;17.60;13.77;;;10.50;98.00;;;;;;4953213;29;20817;-62
2024/03/01 02:28:17;;;;;;;18.20;13.03;;;10.20;98.40;;;;;;4951837;29;20468;-62
2024/03/01 02:30:46;;;;;;;15.20;12.10;;;10.10;99.60;;;;;;4953264;29;20490;-62
2024/03/01 02:33:12;;;;;;;19.70;13.30;;;10.00;99.90;;;;;;4952277;29;20185;-62
2024/03/01 02:35:38;;;;;;;17.20;12.97;;;10.10;99.90;;;;;;4955579;29;20547;-62
2024/03/01 02:38:04;;;;;;;17.63;12.47;;;10.20;99.90;;;;;;4952644;29;20192;-62
2024/03/01 02:40:32;;;;;;;20.87;13.17;;;10.20;99.90;;;;;;4953745;29;20442;-60
2024/03/01 02:42:58;;;;;;;17.40;12.93;;;10.20;99.90;;;;;;4916477;29;20447;-61
2024/03/01 02:45:24;;;;;;;19.80;12.50;;;10.20;99.90;;;;;;4944359;29;20784;-62
2024/03/01 02:47:49;;;;;;;18.00;13.83;;;10.00;99.90;;;;;;4952645;29;20185;-62
2024/03/01 02:50:15;;;;;;;17.17;12.60;;;10.00;99.90;;;;;;4954496;29;20313;-62
2024/03/01 02:52:41;;;;;;;21.93;14.27;;;10.10;99.90;;;;;;4953662;29;20664;-62
2024/03/01 02:55:07;;;;;;;19.53;13.37;;;9.90;99.90;;;;;;4950069;29;20668;-61
2024/03/01 02:57:33;;;;;;;17.63;12.87;;;9.90;99.90;;;;;;4955062;29;20622;-62
2024/03/01 02:59:59;;;;;;;20.47;13.47;;;9.90;99.90;;;;;;4952726;29;20445;-61
2024/03/01 03:02:28;;;;;;;17.90;12.47;;;10.00;99.90;;;;;;4953465;29;20515;-62
2024/03/01 03:04:54;;;;;;;16.67;12.70;;;10.10;99.90;;;;;;4954836;29;20548;-60
2024/03/01 03:07:20;;;;;;;17.60;13.63;;;10.20;99.90;;;;;;4953048;29;20543;-62
2024/03/01 03:09:46;;;;;;;19.67;13.03;;;10.30;99.90;;;;;;4953103;28;20195;-62
2024/03/01 03:12:12;;;;;;;18.20;13.17;;;10.40;99.90;;;;;;4953289;29;20493;-61
2024/03/01 03:14:38;;;;;;;16.60;12.37;;;10.50;99.90;;;;;;4952354;29;20280;-62
2024/03/01 03:17:05;;;;;;;19.17;12.77;;;10.60;99.90;;;;;;4952435;29;20235;-61
2024/03/01 03:19:30;;;;;;;19.90;13.40;;;10.60;99.90;;;;;;4954741;29;20825;-62
2024/03/01 03:21:56;;;;;;;17.90;12.90;;;10.60;99.90;;;;;;4952411;29;20465;-59
2024/03/01 03:24:23;;;;;;;17.00;12.13;;;10.70;99.90;;;;;;4952664;29;20734;-62
2024/03/01 03:26:48;;;;;;;18.03;12.03;;;10.70;99.90;;;;;;4952873;29;20591;-62
2024/03/01 03:29:14;;;;;;;17.00;12.13;;;10.70;99.90;;;;;;4953203;29;20468;-62
2024/03/01 03:31:41;;;;;;;17.30;12.17;;;10.60;99.90;;;;;;4952119;29;20197;-62
2024/03/01 03:34:08;;;;;;;18.37;13.20;;;10.60;99.90;;;;;;4951212;29;20649;-61
2024/03/01 03:36:34;;;;;;;15.87;12.43;;;10.60;99.90;;;;;;4950499;29;20421;-62
2024/03/01 03:38:59;;;;;;;17.90;12.10;;;10.50;99.90;;;;;;4952955;29;20479;-60
2024/03/01 03:41:25;;;;;;;16.50;13.17;;;10.60;99.90;;;;;;4952013;29;20195;-62
2024/03/01 03:43:52;;;;;;;18.70;12.47;;;10.60;99.90;;;;;;4951627;29;20208;-62
2024/03/01 03:46:18;;;;;;;18.77;13.30;;;10.70;99.90;;;;;;4951053;29;20261;-62
2024/03/01 03:48:43;;;;;;;17.97;12.37;;;10.60;99.90;;;;;;4953609;29;20410;-62
2024/03/01 03:51:09;;;;;;;15.83;12.40;;;10.60;99.90;;;;;;4951190;29;20974;-62
2024/03/01 03:53:35;;;;;;;17.23;12.77;;;10.60;99.90;;;;;;4951915;29;20190;-62
2024/03/01 03:56:01;;;;;;;19.00;12.30;;;10.50;99.90;;;;;;4952665;29;20170;-59
2024/03/01 03:58:27;;;;;;;16.40;11.23;;;10.60;99.90;;;;;;4951851;29;20440;-62
2024/03/01 04:00:53;;;;;;;16.77;11.90;;;10.40;99.90;;;;;;4934963;29;20443;-62
2024/03/01 04:03:18;;;;;;;16.77;12.17;;;10.30;99.90;;;;;;4952282;29;20283;-62
2024/03/01 04:05:44;;;;;;;16.00;11.53;;;10.20;99.90;;;;;;4952239;29;20189;-62
2024/03/01 04:08:10;;;;;;;15.30;11.30;;;10.00;99.90;;;;;;4951183;29;20227;-61
2024/03/01 04:10:35;;;;;;;15.77;11.53;;;10.00;99.90;;;;;;4953336;29;20260;-62
2024/03/01 04:13:01;;;;;;;14.80;12.63;;;10.00;99.90;;;;;;4950665;29;20545;-59
2024/03/01 04:15:27;;;;;;;15.80;12.17;;;10.00;99.90;;;;;;4951696;29;20629;-62
2024/03/01 04:17:53;;;;;;;16.97;11.60;;;10.00;99.90;;;;;;4953229;29;20238;-62
2024/03/01 04:20:18;;;;;;;18.33;12.37;;;10.00;99.90;;;;;;4950909;28;20322;-62
2024/03/01 04:22:44;;;;;;;14.67;12.03;;;9.90;99.90;;;;;;4953292;29;20527;-62
2024/03/01 04:25:10;;;;;;;16.40;12.33;;;9.90;99.90;;;;;;4955767;29;20216;-62
2024/03/01 04:27:38;;;;;;;15.63;11.20;;;9.80;99.90;;;;;;4916354;29;1127949;-62
2024/03/01 04:30:10;;;;;;;15.37;11.90;;;9.90;99.90;;;;;;4948522;29;20846;-61
2024/03/01 04:32:36;;;;;;;17.53;11.67;;;9.80;99.90;;;;;;4922238;29;20416;-60
2024/03/01 04:35:02;;;;;;;13.87;12.00;;;9.80;99.90;;;;;;4938158;29;20448;-59
2024/03/01 04:37:28;;;;;;;16.33;12.00;;;9.60;99.90;;;;;;4940379;29;20185;-64
2024/03/01 04:39:54;;;;;;;20.07;11.13;;;9.80;99.90;;;;;;4938211;29;20414;-64
2024/03/01 04:42:19;;;;;;;18.90;11.17;;;9.80;99.90;;;;;;4951166;29;20693;-64
2024/03/01 04:44:45;;;;;;;17.40;13.00;;;9.70;99.90;;;;;;4937725;29;20554;-64
2024/03/01 04:47:11;;;;;;;15.10;10.80;;;9.60;99.90;;;;;;4941084;29;20250;-64
2024/03/01 04:49:43;;;;;;;15.10;11.00;;;9.50;99.90;;;;;;4948286;29;20436;-65
2024/03/01 04:52:09;;;;;;;16.63;12.73;;;9.60;99.90;;;;;;4938079;29;20189;-64
2024/03/01 04:54:34;;;;;;;17.97;11.03;;;9.40;99.90;;;;;;4937341;29;20435;-64
2024/03/01 04:57:00;;;;;;;16.00;12.33;;;9.30;99.90;;;;;;4942732;29;20187;-62
2024/03/01 04:59:26;;;;;;;13.90;12.00;;;9.30;99.90;;;;;;4938538;29;20194;-65
2024/03/01 05:01:51;;;;;;;16.40;11.30;;;9.20;99.90;;;;;;4940071;29;20639;-65
2024/03/01 05:04:17;;;;;;;15.27;11.73;;;9.20;99.90;;;;;;4941181;29;20216;-64
2024/03/01 05:06:43;;;;;;;16.20;11.20;;;9.30;99.90;;;;;;4932864;29;20712;-64
2024/03/01 05:09:09;;;;;;;18.20;10.50;;;9.30;99.90;;;;;;4944524;29;20192;-64
2024/03/01 05:11:35;;;;;;;14.63;12.23;;;9.40;99.90;;;;;;4938574;29;20629;-65
2024/03/01 05:14:03;;;;;;;15.50;11.20;;;9.50;99.90;;;;;;4939389;29;20219;-61
2024/03/01 05:16:29;;;;;;;14.03;10.73;;;9.50;99.90;;;;;;4940695;29;20427;-64
2024/03/01 05:18:55;;;;;;;14.77;10.60;;;9.40;99.90;;;;;;4936601;29;20416;-64
2024/03/01 05:21:22;;;;;;;13.57;10.00;;;9.40;99.90;;;;;;4940998;29;20416;-64
2024/03/01 05:23:51;;;;;;;14.83;12.30;;;9.30;99.90;;;;;;4938531;29;20209;-64
2024/03/01 05:26:17;;;;;;;17.53;10.60;;;9.30;99.90;;;;;;4936165;29;20500;-64
2024/03/01 05:28:42;;;;;;;16.33;11.40;;;9.30;99.90;;;;;;4936390;29;20453;-64
2024/03/01 05:31:08;;;;;;;14.07;12.50;;;9.10;99.90;;;;;;4950171;29;20191;-64
2024/03/01 05:33:34;;;;;;;14.48;10.70;;;9.20;99.90;;;;;;4938725;28;20428;-60
2024/03/01 05:36:01;;;;;;;13.60;10.70;;;9.20;99.90;;;;;;4943764;29;20215;-60
2024/03/01 05:38:27;;;;;;;13.73;11.60;;;9.30;99.90;;;;;;4936882;29;20438;-60
2024/03/01 05:40:52;;;;;;;16.63;12.03;;;9.50;99.90;;;;;;4935267;29;20921;-60
2024/03/01 05:43:22;;;;;;;12.07;10.77;;;9.50;99.90;;;;;;4946848;29;20239;-61
2024/03/01 05:45:47;;;;;;;14.63;9.87;;;9.60;99.90;;;;;;4940268;29;20179;-60
2024/03/01 05:48:13;;;;;;;14.47;11.27;;;9.50;99.90;;;;;;4941456;29;20432;-60
2024/03/01 05:50:39;;;;;;;13.63;10.70;;;9.60;99.90;;;;;;4938058;29;20186;-61
2024/03/01 05:53:05;;;;;;;14.10;10.00;;;9.70;99.90;;;;;;4939209;29;20595;-60
2024/03/01 05:55:30;;;;;;;15.40;10.50;;;9.70;99.90;;;;;;4936689;29;20182;-60
2024/03/01 05:57:56;;;;;;;16.30;11.17;;;9.60;99.90;;;;;;4935771;29;20321;-60
2024/03/01 06:00:25;;;;;;;13.50;11.03;;;9.70;99.90;;;;;;4935983;29;20248;-60
2024/03/01 06:02:51;;;;;;;19.50;11.30;;;9.70;99.90;;;;;;4936351;29;20178;-63
2024/03/01 06:05:17;;;;;;;13.33;9.20;;;9.60;99.90;;;;;;4943199;29;20433;-60
2024/03/01 06:07:44;;;;;;;15.40;10.97;;;9.70;99.90;;;;;;4950338;29;20456;-61
2024/03/01 06:10:12;;;;;;;14.93;11.17;;;9.70;99.90;;;;;;4936264;29;20429;-60
2024/03/01 06:12:38;;;;;;;14.57;11.23;;;9.70;99.90;;;;;;4941898;29;20923;-61
2024/03/01 06:15:04;;;;;;;13.70;10.20;;;9.70;99.90;;;;;;4920628;29;20514;-61
2024/03/01 06:17:31;;;;;;;13.60;10.20;;;9.80;99.90;;;;;;4935183;29;20183;-59
2024/03/01 06:19:56;;;;;;;14.47;10.90;;;9.80;99.90;;;;;;4967368;28;20429;-60
2024/03/01 06:22:22;;;;;;;13.60;10.20;;;9.90;99.90;;;;;;4943103;29;20432;-59
2024/03/01 06:24:48;;;;;;;14.60;11.20;;;9.90;99.90;;;;;;4951355;29;20689;-59
2024/03/01 06:27:14;;;;;;;15.00;10.43;;;10.10;99.90;;;;;;4935051;29;20196;-59
2024/03/01 06:29:40;;;;;;;15.77;11.80;;;10.00;99.90;;;;;;4941383;29;20220;-61
2024/03/01 06:32:08;;;;;;;13.00;9.70;;;10.10;99.90;;;;;;4938696;29;20437;-60
2024/03/01 06:34:34;;;;;;;14.47;11.03;;;10.10;99.90;;;;;;4953104;29;20183;-59
2024/03/01 06:36:59;;;;;;;15.47;11.17;;;10.20;99.90;;;;;;4943232;29;20470;-60
2024/03/01 06:39:25;;;;;;;11.53;10.10;;;10.20;99.90;;;;;;4935447;29;20182;-59
2024/03/01 06:41:51;;;;;;;13.00;9.67;;;10.00;99.90;;;;;;4935848;29;20275;-59
2024/03/01 06:44:23;;;;;;;14.80;11.40;;;10.10;99.90;;;;;;4933666;29;20315;-59
2024/03/01 06:46:49;;;;;;;15.77;11.67;;;10.10;99.90;;;;;;4940829;29;20191;-60
2024/03/01 06:49:14;;;;;;;14.80;10.90;;;10.10;99.90;;;;;;4940096;29;20405;-59
2024/03/01 06:51:40;;;;;;;16.00;12.73;;;10.30;99.90;;;;;;4948157;29;20448;-60
2024/03/01 06:54:06;;;;;;;14.37;11.17;;;10.40;99.90;;;;;;4948066;29;20203;-59
2024/03/01 06:56:31;;;;;;;14.00;11.13;;;10.50;99.90;;;;;;4946631;29;20188;-59
2024/03/01 06:58:57;;;;;;;12.20;9.50;;;10.50;99.90;;;;;;4954009;29;20188;-60
2024/03/01 07:01:23;;;;;;;13.60;10.90;;;10.50;99.90;;;;;;4920850;29;20229;-59
2024/03/01 07:03:48;;;;;;;12.20;10.00;;;10.70;99.90;;;;;;4949507;29;20264;-59
2024/03/01 07:06:14;;;;;;;14.43;10.60;;;10.50;99.90;;;;;;4946872;29;20193;-59
2024/03/01 07:08:42;;;;;;;12.93;10.77;;;10.50;99.90;;;;;;4950395;29;20182;-60
2024/03/01 07:11:08;;;;;;;11.00;9.50;;;10.40;99.90;;;;;;4953003;29;20178;-59
2024/03/01 07:13:34;;;;;;;14.13;11.53;;;10.40;99.90;;;;;;4952364;29;20504;-59
2024/03/01 07:16:00;;;;;;;13.73;11.63;;;10.30;99.90;;;;;;4953050;29;20432;-59
2024/03/01 07:18:26;;;;;;;12.60;10.07;;;10.30;99.90;;;;;;4948486;29;20253;-59
2024/03/01 07:20:52;;;;;;;13.50;10.90;;;10.50;99.90;;;;;;4946280;29;20850;-60
2024/03/01 07:23:18;;;;;;;12.30;10.87;;;10.60;99.90;;;;;;4952314;29;20223;-61
2024/03/01 07:25:44;;;;;;;13.43;8.90;;;10.60;99.90;;;;;;4954729;29;20412;-60
2024/03/01 07:28:10;;;;;;;12.20;10.00;;;10.70;99.90;;;;;;4937931;29;20230;-60
2024/03/01 07:30:35;;;;;;;12.87;9.60;;;10.70;99.90;;;;;;4940683;29;20254;-59
2024/03/01 07:33:01;;;;;;;11.43;9.83;;;10.80;99.90;;;;;;4935634;29;20183;-59
2024/03/01 07:35:27;;;;;;;11.07;9.47;;;10.60;99.90;;;;;;4913735;29;20823;-60
2024/03/01 07:37:53;;;;;;;12.23;10.20;;;10.70;99.90;;;;;;4936954;29;20177;-59
2024/03/01 07:40:18;;;;;;;12.77;9.63;;;10.70;99.90;;;;;;4935627;29;20314;-59
2024/03/01 07:42:44;;;;;;;12.97;10.57;;;10.70;99.90;;;;;;4948200;29;20193;-60
2024/03/01 07:45:10;;;;;;;12.70;9.60;;;10.60;99.90;;;;;;4953054;29;20259;-59
2024/03/01 07:47:36;;;;;;;11.30;9.17;;;10.70;99.90;;;;;;4934020;29;20187;-59
2024/03/01 07:50:02;;;;;;;10.90;9.77;;;10.80;99.90;;;;;;4934435;29;20795;-60
2024/03/01 07:52:28;;;;;;;12.43;9.77;;;10.70;99.90;;;;;;4942525;29;20226;-60
2024/03/01 07:54:55;;;;;;;11.13;10.03;;;10.80;99.90;;;;;;4940926;29;20440;-60
2024/03/01 07:57:21;;;;;;;13.13;10.57;;;10.90;99.90;;;;;;4938595;29;20446;-59
2024/03/01 07:59:47;;;;;;;18.30;10.77;;;10.90;99.90;;;;;;4936336;29;20421;-60
2024/03/01 08:02:13;;;;;;;13.30;10.97;;;10.90;99.90;;;;;;4937917;29;20426;-59
2024/03/01 08:04:39;;;;;;;14.93;11.73;;;10.90;99.90;;;;;;4950981;29;20216;-60
2024/03/01 08:07:06;;;;;;;12.07;9.60;;;11.00;99.90;;;;;;4943343;29;20443;-63
2024/03/01 08:09:39;;;;;;;12.90;10.10;;;11.20;99.90;;;;;;4953133;29;20748;-63
2024/03/01 08:12:09;;;;;;;12.57;10.17;;;11.20;99.90;;;;;;4952510;29;20435;-63
2024/03/01 08:14:35;;;;;;;12.30;11.13;;;11.10;99.90;;;;;;4949847;29;20436;-62
2024/03/01 08:17:01;;;;;;;12.00;10.30;;;11.10;99.90;;;;;;4939792;29;20415;-62
2024/03/01 08:19:37;;;;;;;14.20;9.87;;;11.10;99.90;;;;;;4946833;29;20212;-62
2024/03/01 08:22:09;;;;;;;11.60;10.50;;;10.90;99.90;;;;;;4934815;29;20441;-63
2024/03/01 08:24:35;;;;;;;11.90;10.80;;;11.00;99.90;;;;;;4948449;29;20456;-62
2024/03/01 08:27:03;;;;;;;13.87;10.80;;;11.10;99.90;;;;;;4944457;29;20802;-62
2024/03/01 08:29:31;;;;;;;12.57;10.80;;;11.00;99.90;;;;;;4949555;29;20440;-62
2024/03/01 08:31:56;;;;;;;11.73;10.53;;;11.20;99.90;;;;;;4951119;29;20446;-63
2024/03/01 08:34:30;;;;;;;12.40;11.20;;;11.20;99.90;;;;;;4951492;29;20425;-62
2024/03/01 08:36:56;;;;;;;12.40;9.50;;;11.10;99.90;;;;;;4953946;29;20520;-63
2024/03/01 08:39:23;;;;;;;10.83;9.40;;;11.20;99.90;;;;;;4951360;29;20436;-62
2024/03/01 08:41:51;;;;;;;12.20;10.00;;;11.30;99.90;;;;;;4934353;29;20404;-63
2024/03/01 08:44:37;;;;;;;11.30;10.13;;;11.20;99.90;;;;;;4937010;29;20455;-59
2024/03/01 08:47:03;;;;;;;14.30;11.83;;;11.20;99.90;;;;;;4932706;29;20435;-62
2024/03/01 08:49:53;;;;;;;14.33;11.43;;;11.10;99.90;;;;;;4950351;29;20436;-62
2024/03/01 08:52:31;;;;;;;13.47;10.97;;;11.10;99.90;;;;;;4945375;29;20590;-61
2024/03/01 08:55:20;;;;;;;12.07;10.87;;;11.20;99.90;;;;;;4951519;29;20437;-63
2024/03/01 08:57:48;;;;;;;13.50;11.90;;;11.20;99.90;;;;;;4946703;29;20467;-62
2024/03/01 09:00:20;;;;;;;14.33;11.20;;;11.20;99.90;;;;;;4943817;29;20477;-63
2024/03/01 09:02:46;;;;;;;11.10;10.00;;;11.20;99.90;;;;;;4947726;29;20441;-63
2024/03/01 09:05:14;;;;;;;9.73;8.67;;;11.20;99.90;;;;;;4918043;29;20825;-63
2024/03/01 09:07:40;;;;;;;9.30;7.50;;;11.20;99.90;;;;;;4928860;29;20429;-62
2024/03/01 09:10:29;;;;;;;7.63;6.73;;;11.20;99.90;;;;;;4920071;29;20553;-63
2024/03/01 09:12:55;;;;;;;6.73;5.67;;;11.10;99.90;;;;;;4928085;29;20440;-62
2024/03/01 09:15:23;;;;;;;5.97;5.40;;;11.10;99.90;;;;;;4939137;29;20440;-61
2024/03/01 09:17:51;;;;;;;8.60;7.90;;;11.00;99.90;;;;;;4941880;29;20434;-63
2024/03/01 09:20:34;;;;;;;6.73;6.13;;;11.00;99.90;;;;;;4936307;29;21005;-59
2024/03/01 09:23:03;;;;;;;6.80;6.27;;;11.00;99.90;;;;;;4943592;29;20439;-63
2024/03/01 09:25:45;;;;;;;7.23;6.60;;;11.00;99.90;;;;;;4937352;29;20903;-61
2024/03/01 09:28:20;;;;;;;7.10;6.60;;;11.10;99.90;;;;;;4937111;29;20475;-63
2024/03/01 09:30:47;;;;;;;6.10;5.50;;;11.10;99.90;;;;;;4937235;29;20525;-61
2024/03/01 09:33:15;;;;;;;6.20;5.60;;;11.20;99.90;;;;;;4936684;29;20523;-60
2024/03/01 09:35:42;;;;;;;6.50;6.00;;;11.20;99.90;;;;;;4937967;29;20520;-64
2024/03/01 09:38:13;;;;;;;5.70;5.20;;;11.20;99.90;;;;;;4938945;29;20922;-64
2024/03/01 09:40:50;;;;;;;5.63;5.17;;;11.20;99.90;;;;;;4937627;29;20978;-64
2024/03/01 09:44:01;;;;;;;6.30;5.80;;;11.20;99.90;;;;;;4937294;29;20544;-65
2024/03/01 09:46:54;;;;;;;5.80;5.37;;;11.30;99.90;;;;;;4904118;29;20426;-61
2024/03/01 09:49:56;;;;;;;6.33;5.83;;;11.20;99.90;;;;;;4939651;29;20957;-61
2024/03/01 09:52:34;;;;;;;6.50;6.00;;;11.30;99.90;;;;;;4927099;29;20442;-61
2024/03/01 09:55:44;;;;;;;6.50;5.93;;;11.40;99.90;;;;;;4940070;29;20447;-64
2024/03/01 09:58:19;;;;;;;6.33;5.70;;;11.30;99.90;;;;;;4916053;29;20444;-65
2024/03/01 10:01:03;;;;;;;5.83;5.33;;;11.30;99.90;;;;;;4935599;29;20917;-64
2024/03/01 10:03:42;;;;;;;5.67;5.17;;;11.30;99.90;;;;;;4935441;29;20460;-64
2024/03/01 10:06:08;;;;;;;5.20;4.80;;;11.20;99.90;;;;;;4941625;29;20834;-64
2024/03/01 10:09:02;;;;;;;4.87;4.57;;;11.20;99.90;;;;;;4946712;29;20437;-64
2024/03/01 10:11:59;;;;;;;4.80;4.50;;;11.10;99.90;;;;;;4934606;29;20445;-64
2024/03/01 10:14:31;;;;;;;5.13;4.83;;;11.00;99.90;;;;;;4935413;29;20426;-64
2024/03/01 10:17:11;;;;;;;4.97;4.67;;;11.10;99.90;;;;;;4963723;28;20446;-65
2024/03/01 10:19:50;;;;;;;5.10;4.80;;;11.10;99.90;;;;;;4937179;29;20532;-65
2024/03/01 10:22:52;;;;;;;4.80;4.50;;;11.20;99.90;;;;;;4940315;29;20415;-64
2024/03/01 10:25:51;;;;;;;4.50;4.20;;;11.10;99.90;;;;;;4946254;29;20505;-65
2024/03/01 10:28:43;;;;;;;4.57;4.17;;;11.10;99.90;;;;;;4947210;29;20466;-64
2024/03/01 10:31:27;;;;;;;4.60;4.20;;;11.20;99.90;;;;;;4938463;29;20489;-64
2024/03/01 10:34:10;;;;;;;3.70;3.50;;;11.40;99.90;;;;;;4936237;29;20449;-64
2024/03/01 10:36:36;;;;;;;4.53;4.23;;;11.60;99.90;;;;;;4947079;29;20445;-64
2024/03/01 10:39:32;;;;;;;4.67;4.27;;;11.70;99.90;;;;;;4935060;29;20438;-65
2024/03/01 10:42:10;;;;;;;4.50;4.20;;;11.80;99.90;;;;;;4935750;29;20688;-64
2024/03/01 10:44:54;;;;;;;4.77;4.40;;;12.00;99.90;;;;;;4936023;29;20462;-64
2024/03/01 10:47:26;;;;;;;5.27;4.80;;;12.00;99.90;;;;;;4939816;29;20469;-65
2024/03/01 10:50:20;;;;;;;4.70;4.30;;;11.90;99.90;;;;;;4929890;29;20452;-65
2024/03/01 10:52:49;;;;;;;5.10;4.80;;;12.00;99.90;;;;;;4937377;29;20435;-65
2024/03/01 10:55:28;;;;;;;5.67;5.27;;;12.00;99.90;;;;;;4951920;29;20419;-69
2024/03/01 10:57:58;;;;;;;4.93;4.60;;;11.90;99.90;;;;;;4927002;29;20493;-65
2024/03/01 11:00:26;;;;;;;4.80;4.50;;;11.90;99.90;;;;;;4935907;29;20476;-61
2024/03/01 11:03:03;;;;;;;5.40;5.00;;;11.90;99.90;;;;;;4936105;29;20416;-65
2024/03/01 11:05:35;;;;;;;5.20;4.70;;;11.90;99.90;;;;;;4933894;29;20466;-64
2024/03/01 11:08:30;;;;;;;4.93;4.63;;;11.90;99.90;;;;;;4935207;29;20434;-64
2024/03/01 11:11:06;;;;;;;3.63;3.43;;;11.80;99.90;;;;;;4929446;29;20826;-64
2024/03/01 11:13:34;;;;;;;4.00;3.70;;;11.70;99.90;;;;;;4934888;29;20434;-64
2024/03/01 11:16:04;;;;;;;4.20;4.00;;;11.80;99.90;;;;;;4934987;29;20459;-64
2024/03/01 11:18:40;;;;;;;5.00;4.60;;;11.90;99.90;;;;;;4930300;29;20411;-64
2024/03/01 11:21:10;;;;;;;4.73;4.33;;;12.00;99.90;;;;;;4937638;29;20423;-65
2024/03/01 11:23:45;;;;;;;4.83;4.50;;;12.10;99.90;;;;;;4949133;29;20512;-65
2024/03/01 11:26:26;;;;;;;4.10;3.70;;;12.30;99.90;;;;;;4935342;29;20405;-64
2024/03/01 11:28:57;;;;;;;4.20;4.00;;;12.50;99.90;;;;;;4934849;29;20483;-64
2024/03/01 11:31:38;;;;;;;4.93;4.50;;;12.60;99.90;;;;;;4934886;29;20437;-64
2024/03/01 11:34:28;;;;;;;5.07;4.77;;;12.50;99.90;;;;;;4935104;29;20491;-65
2024/03/01 11:37:02;;;;;;;4.60;4.30;;;12.30;99.90;;;;;;4899427;29;20441;-65
2024/03/01 11:39:45;;;;;;;4.60;4.30;;;12.10;99.90;;;;;;4915636;29;20420;-61
2024/03/01 11:42:29;;;;;;;5.00;4.60;;;12.20;99.90;;;;;;4949614;29;20438;-65
2024/03/01 11:45:23;;;;;;;5.13;4.73;;;12.20;99.90;;;;;;4954428;29;20902;-65
2024/03/01 11:48:20;;;;;;;5.43;5.10;;;12.20;99.90;;;;;;4953339;29;20394;-65
2024/03/01 11:50:48;;;;;;;5.47;5.07;;;12.30;99.90;;;;;;4953487;29;20469;-65
2024/03/01 11:53:41;;;;;;;4.40;4.20;;;12.20;99.90;;;;;;4954435;29;20445;-65
2024/03/01 11:56:42;;;;;;;4.50;4.20;;;12.10;99.90;;;;;;4949083;29;20413;-69
2024/03/01 11:59:38;;;;;;;3.90;3.70;;;12.10;99.90;;;;;;4938849;29;20451;-64
2024/03/01 12:02:23;;;;;;;4.13;3.83;;;11.90;99.90;;;;;;4927606;29;20788;-63
2024/03/01 12:05:07;;;;;;;3.20;3.00;;;11.90;99.90;;;;;;4933341;29;20458;-63
2024/03/01 12:07:52;;;;;;;3.73;3.53;;;11.90;99.90;;;;;;4942364;29;20451;-62
2024/03/01 12:10:31;;;;;;;3.77;3.57;;;12.10;99.90;;;;;;4951629;29;20466;-64
2024/03/01 12:13:05;;;;;;;70.63;45.97;;;12.10;99.90;;;;;;4947525;29;20756;-62
2024/03/01 12:15:41;;;;;;;41.20;28.33;;;12.30;99.90;;;;;;4933759;29;20548;-61
2024/03/01 12:18:07;;;;;;;4.63;4.20;;;12.50;99.90;;;;;;4940185;28;20738;-61
2024/03/01 12:20:36;;;;;;;3.87;3.67;;;12.70;99.90;;;;;;4934089;29;20417;-61
2024/03/01 12:23:02;;;;;;;5.00;3.90;;;12.80;99.90;;;;;;4934790;29;20181;-62
2024/03/01 12:25:28;;;;;;;3.20;3.10;;;13.00;99.90;;;;;;4934603;29;20437;-61
2024/03/01 12:28:32;;;;;;;3.40;3.30;;;13.10;99.90;;;;;;4934531;29;20276;-62
2024/03/01 12:31:21;;;;;;;2.80;2.70;;;13.40;98.90;;;;;;4933661;29;20479;-62
2024/03/01 12:34:24;;;;;;;2.97;2.87;;;13.70;98.20;;;;;;4950927;29;20469;-62
2024/03/01 12:37:08;;;;;;;19.57;14.47;;;14.00;96.90;;;;;;4934847;29;20414;-61
2024/03/01 12:39:38;;;;;;;18.47;13.97;;;13.70;96.70;;;;;;4933362;29;20422;-62
2024/03/01 12:42:13;;;;;;;3.33;3.10;;;13.80;96.90;;;;;;4935491;29;20419;-62
2024/03/01 12:45:08;;;;;;;3.37;3.07;;;13.80;96.50;;;;;;4925630;29;20455;-62
2024/03/01 12:47:35;;;;;;;2.70;2.50;;;13.80;95.90;;;;;;4936883;29;20493;-62
2024/03/01 12:50:04;;;;;;;3.03;2.83;;;13.90;95.90;;;;;;4940655;29;20445;-62
2024/03/01 12:52:29;;;;;;;2.57;2.47;;;14.00;95.20;;;;;;4938001;29;20446;-62